sensor_id;sensor_type;location;lat;lon;timestamp;pressure;altitude;pressure_sealevel;temperature;humidity
45789;BME280;31492;54.856;26.318;2023-03-16T00:03:30;1022.1;;;2.1;66.5
45789;BME280;31492;54.856;26.318;2023-03-16T00:08:36;1022.1;;;2.1;66.5
45789;BME280;31492;54.856;26.318;2023-03-16T00:13:30;1022.1;;;2.1;66.6
45789;BME280;31492;54.856;26.318;2023-03-16T00:18:58;1022.1;;;2.1;66.7
45789;BME280;31492;54.856;26.318;2023-03-16T00:23:50;1022.2;;;2.1;66.6
45789;BME280;31492;54.856;26.318;2023-03-16T00:28:40;1022.3;;;2;66.5
45789;BME280;31492;54.856;26.318;2023-03-16T00:33:58;1022.4;;;2;66.5
45789;BME280;31492;54.856;26.318;2023-03-16T00:38:31;1022.4;;;2;66.6
45789;BME280;31492;54.856;26.318;2023-03-16T00:43:30;1022.5;;;2;66.5
45789;BME280;31492;54.856;26.318;2023-03-16T00:48:30;1022.5;;;2;66.2
45789;BME280;31492;54.856;26.318;2023-03-16T00:53:50;1022.6;;;2;65.8
45789;BME280;31492;54.856;26.318;2023-03-16T00:58:50;1022.6;;;1.9;65.7
45789;BME280;31492;54.856;26.318;2023-03-16T01:03:44;1022.7;;;1.8;65.7
45789;BME280;31492;54.856;26.318;2023-03-16T01:08:46;1022.7;;;1.8;65.8
45789;BME280;31492;54.856;26.318;2023-03-16T01:13:58;1022.7;;;1.7;66
45789;BME280;31492;54.856;26.318;2023-03-16T01:18:30;1022.7;;;1.7;66
45789;BME280;31492;54.856;26.318;2023-03-16T01:23:30;1022.7;;;1.6;66
45789;BME280;31492;54.856;26.318;2023-03-16T01:28:30;1022.7;;;1.6;65.9
45789;BME280;31492;54.856;26.318;2023-03-16T01:33:44;1022.7;;;1.6;66.1
45789;BME280;31492;54.856;26.318;2023-03-16T01:38:36;1022.7;;;1.6;66
45789;BME280;31492;54.856;26.318;2023-03-16T01:43:44;1022.7;;;1.6;65.9
45789;BME280;31492;54.856;26.318;2023-03-16T01:48:54;1022.8;;;1.6;66.1
45789;BME280;31492;54.856;26.318;2023-03-16T01:53:40;1022.8;;;1.5;66.3
45789;BME280;31492;54.856;26.318;2023-03-16T01:58:44;1022.8;;;1.5;66.3
45789;BME280;31492;54.856;26.318;2023-03-16T02:03:30;1022.8;;;1.5;66.5
45789;BME280;31492;54.856;26.318;2023-03-16T02:08:56;1022.8;;;1.4;66.8
45789;BME280;31492;54.856;26.318;2023-03-16T02:13:30;1022.9;;;1.4;67
45789;BME280;31492;54.856;26.318;2023-03-16T02:18:30;1022.9;;;1.4;67.1
45789;BME280;31492;54.856;26.318;2023-03-16T02:23:30;1022.9;;;1.3;67
45789;BME280;31492;54.856;26.318;2023-03-16T02:28:31;1022.9;;;1.3;66.9
45789;BME280;31492;54.856;26.318;2023-03-16T02:33:30;1023;;;1.3;67
45789;BME280;31492;54.856;26.318;2023-03-16T02:38:30;1023.1;;;1.3;67
45789;BME280;31492;54.856;26.318;2023-03-16T02:43:30;1023.2;;;1.3;67
45789;BME280;31492;54.856;26.318;2023-03-16T02:48:42;1023.2;;;1.2;67.1
45789;BME280;31492;54.856;26.318;2023-03-16T02:53:44;1023.3;;;1.2;67.3
45789;BME280;31492;54.856;26.318;2023-03-16T02:58:44;1023.3;;;1.2;67.5
45789;BME280;31492;54.856;26.318;2023-03-16T03:03:30;1023.3;;;1.2;67.6
45789;BME280;31492;54.856;26.318;2023-03-16T03:08:44;1023.3;;;1.2;67.5
45789;BME280;31492;54.856;26.318;2023-03-16T03:13:48;1023.4;;;1.3;67.3
45789;BME280;31492;54.856;26.318;2023-03-16T03:18:44;1023.4;;;1.3;67.4
45789;BME280;31492;54.856;26.318;2023-03-16T03:23:58;1023.4;;;1.3;67.4
45789;BME280;31492;54.856;26.318;2023-03-16T03:28:44;1023.3;;;1.3;67.5
45789;BME280;31492;54.856;26.318;2023-03-16T03:33:30;1023.4;;;1.3;67.4
45789;BME280;31492;54.856;26.318;2023-03-16T03:38:58;1023.4;;;1.4;67.4
45789;BME280;31492;54.856;26.318;2023-03-16T03:44:06;1023.5;;;1.4;67.5
45789;BME280;31492;54.856;26.318;2023-03-16T03:48:40;1023.5;;;1.4;67.6
45789;BME280;31492;54.856;26.318;2023-03-16T03:53:30;1023.5;;;1.4;67.5
45789;BME280;31492;54.856;26.318;2023-03-16T03:58:50;1023.5;;;1.4;67.6
45789;BME280;31492;54.856;26.318;2023-03-16T04:03:44;1023.5;;;1.4;67.5
45789;BME280;31492;54.856;26.318;2023-03-16T04:09:00;1023.5;;;1.4;67.4
45789;BME280;31492;54.856;26.318;2023-03-16T04:13:58;1023.6;;;1.4;67.3
45789;BME280;31492;54.856;26.318;2023-03-16T04:18:30;1023.6;;;1.4;67.2
45789;BME280;31492;54.856;26.318;2023-03-16T04:23:36;1023.6;;;1.4;67.2
45789;BME280;31492;54.856;26.318;2023-03-16T04:28:30;1023.7;;;1.4;67.1
45789;BME280;31492;54.856;26.318;2023-03-16T04:33:54;1023.7;;;1.5;67
45789;BME280;31492;54.856;26.318;2023-03-16T04:38:44;1023.8;;;1.4;67
45789;BME280;31492;54.856;26.318;2023-03-16T04:43:30;1023.9;;;1.4;67
45789;BME280;31492;54.856;26.318;2023-03-16T04:48:36;1023.9;;;1.4;67.1
45789;BME280;31492;54.856;26.318;2023-03-16T04:53:44;1024;;;1.5;66.4
45789;BME280;31492;54.856;26.318;2023-03-16T04:58:30;1024;;;1.5;66.7
45789;BME280;31492;54.856;26.318;2023-03-16T05:03:30;1024;;;1.5;66.7
45789;BME280;31492;54.856;26.318;2023-03-16T05:08:30;1024.1;;;1.5;66.9
45789;BME280;31492;54.856;26.318;2023-03-16T05:13:30;1024.1;;;1.6;67
45789;BME280;31492;54.856;26.318;2023-03-16T05:18:44;1024.1;;;1.6;66.9
45789;BME280;31492;54.856;26.318;2023-03-16T05:23:30;1024.1;;;1.7;66.8
45789;BME280;31492;54.856;26.318;2023-03-16T05:28:30;1024.2;;;1.8;66.5
45789;BME280;31492;54.856;26.318;2023-03-16T05:33:44;1024.3;;;1.8;66.3
45789;BME280;31492;54.856;26.318;2023-03-16T05:38:36;1024.3;;;1.9;66.3
45789;BME280;31492;54.856;26.318;2023-03-16T05:43:52;1024.4;;;2;66.1
45789;BME280;31492;54.856;26.318;2023-03-16T05:48:30;1024.5;;;2.1;65.9
45789;BME280;31492;54.856;26.318;2023-03-16T05:53:40;1024.5;;;2.2;65.5
45789;BME280;31492;54.856;26.318;2023-03-16T05:58:50;1024.6;;;2.2;65.8
45789;BME280;31492;54.856;26.318;2023-03-16T06:03:30;1024.6;;;2.2;66.3
45789;BME280;31492;54.856;26.318;2023-03-16T06:08:56;1024.6;;;2.1;66.3
45789;BME280;31492;54.856;26.318;2023-03-16T06:13:44;1024.6;;;2.2;66.3
45789;BME280;31492;54.856;26.318;2023-03-16T06:18:30;1024.7;;;2.4;65.8
45789;BME280;31492;54.856;26.318;2023-03-16T06:23:30;1024.8;;;2.5;65.4
45789;BME280;31492;54.856;26.318;2023-03-16T06:28:30;1024.9;;;2.5;65.3
45789;BME280;31492;54.856;26.318;2023-03-16T06:33:50;1024.9;;;2.5;65.3
45789;BME280;31492;54.856;26.318;2023-03-16T06:38:42;1024.9;;;2.5;65.3
45789;BME280;31492;54.856;26.318;2023-03-16T06:43:30;1024.9;;;2.5;65.3
45789;BME280;31492;54.856;26.318;2023-03-16T06:48:30;1024.9;;;2.5;65.3
45789;BME280;31492;54.856;26.318;2023-03-16T06:53:52;1024.9;;;2.5;65.3
45789;BME280;31492;54.856;26.318;2023-03-16T06:58:30;1024.9;;;2.5;65.3
45789;BME280;31492;54.856;26.318;2023-03-16T07:03:50;1025;;;2.7;64.8
45789;BME280;31492;54.856;26.318;2023-03-16T07:08:44;1025.2;;;3;64.3
45789;BME280;31492;54.856;26.318;2023-03-16T07:13:30;1025.1;;;3.1;64.2
45789;BME280;31492;54.856;26.318;2023-03-16T07:18:46;1025.2;;;3.2;64.3
45789;BME280;31492;54.856;26.318;2023-03-16T07:23:58;1025.2;;;3.4;64.1
45789;BME280;31492;54.856;26.318;2023-03-16T07:28:30;1025.2;;;3.5;63.7
45789;BME280;31492;54.856;26.318;2023-03-16T07:33:30;1025.3;;;3.8;63.7
45789;BME280;31492;54.856;26.318;2023-03-16T07:38:54;1025.3;;;4.1;63
45789;BME280;31492;54.856;26.318;2023-03-16T07:43:30;1025.3;;;4.5;62.5
45789;BME280;31492;54.856;26.318;2023-03-16T07:48:30;1025.3;;;4.8;62.2
45789;BME280;31492;54.856;26.318;2023-03-16T07:53:44;1025.4;;;5;61.2
45789;BME280;31492;54.856;26.318;2023-03-16T07:59:06;1025.4;;;5;61.3
45789;BME280;31492;54.856;26.318;2023-03-16T08:03:30;1025.4;;;5.2;61.3
45789;BME280;31492;54.856;26.318;2023-03-16T08:08:30;1025.4;;;5.4;61.4
45789;BME280;31492;54.856;26.318;2023-03-16T08:13:46;1025.5;;;6.1;61
45789;BME280;31492;54.856;26.318;2023-03-16T08:18:42;1025.5;;;6.5;59.9
45789;BME280;31492;54.856;26.318;2023-03-16T08:23:30;1025.5;;;7.1;59.2
45789;BME280;31492;54.856;26.318;2023-03-16T08:28:30;1025.5;;;7.9;57.8
45789;BME280;31492;54.856;26.318;2023-03-16T08:33:30;1025.6;;;8.4;55.8
45789;BME280;31492;54.856;26.318;2023-03-16T08:38:30;1025.6;;;8.6;56
45789;BME280;31492;54.856;26.318;2023-03-16T08:43:30;1025.6;;;8.9;55.3
45789;BME280;31492;54.856;26.318;2023-03-16T08:48:44;1025.6;;;9.5;54.6
45789;BME280;31492;54.856;26.318;2023-03-16T08:54:00;1025.6;;;10;52.6
45789;BME280;31492;54.856;26.318;2023-03-16T08:59:06;1025.7;;;10.1;51.6
45789;BME280;31492;54.856;26.318;2023-03-16T09:03:50;1025.7;;;10.7;51.9
45789;BME280;31492;54.856;26.318;2023-03-16T09:08:30;1025.7;;;11.3;49.8
45789;BME280;31492;54.856;26.318;2023-03-16T09:13:30;1025.7;;;11.2;48.3
45789;BME280;31492;54.856;26.318;2023-03-16T09:18:30;1025.7;;;11.2;48
45789;BME280;31492;54.856;26.318;2023-03-16T09:23:44;1025.7;;;11.2;48.4
45789;BME280;31492;54.856;26.318;2023-03-16T09:28:42;1025.8;;;11;48
45789;BME280;31492;54.856;26.318;2023-03-16T09:33:30;1025.8;;;10.9;47.8
45789;BME280;31492;54.856;26.318;2023-03-16T09:38:44;1025.8;;;10.7;47.4
45789;BME280;31492;54.856;26.318;2023-03-16T09:43:35;1025.8;;;10;46.4
45789;BME280;31492;54.856;26.318;2023-03-16T09:48:44;1025.8;;;9.6;47.4
45789;BME280;31492;54.856;26.318;2023-03-16T09:53:30;1025.9;;;9.7;48.3
45789;BME280;31492;54.856;26.318;2023-03-16T09:59:05;1026;;;9.7;47.3
45789;BME280;31492;54.856;26.318;2023-03-16T10:04:24;1026;;;9.3;46
45789;BME280;31492;54.856;26.318;2023-03-16T10:08:51;1026;;;9.6;47.3
45789;BME280;31492;54.856;26.318;2023-03-16T10:13:49;1026;;;9.7;46
45789;BME280;31492;54.856;26.318;2023-03-16T10:18:45;1026.1;;;9.6;46.5
45789;BME280;31492;54.856;26.318;2023-03-16T10:23:30;1026.1;;;9.6;46.3
45789;BME280;31492;54.856;26.318;2023-03-16T10:28:52;1026.1;;;9.4;46.6
45789;BME280;31492;54.856;26.318;2023-03-16T10:33:44;1026.1;;;9.4;47
45789;BME280;31492;54.856;26.318;2023-03-16T10:38:32;1026.1;;;10.3;46.1
45789;BME280;31492;54.856;26.318;2023-03-16T10:43:42;1026;;;11.1;44.5
45789;BME280;31492;54.856;26.318;2023-03-16T10:48:50;1026.1;;;11.9;43.4
45789;BME280;31492;54.856;26.318;2023-03-16T10:53:30;1026.1;;;12.1;42.6
45789;BME280;31492;54.856;26.318;2023-03-16T10:58:31;1026.1;;;12.2;42.4
45789;BME280;31492;54.856;26.318;2023-03-16T11:03:36;1026.1;;;12.1;41.5
45789;BME280;31492;54.856;26.318;2023-03-16T11:09:01;1026.1;;;12.6;39.9
45789;BME280;31492;54.856;26.318;2023-03-16T11:13:53;1026.1;;;13.2;39
45789;BME280;31492;54.856;26.318;2023-03-16T11:18:49;1026.1;;;13.4;38.9
45789;BME280;31492;54.856;26.318;2023-03-16T11:23:45;1026.1;;;13.6;37
45789;BME280;31492;54.856;26.318;2023-03-16T11:28:33;1026.1;;;14;36.7
45789;BME280;31492;54.856;26.318;2023-03-16T11:33:48;1026.1;;;14.3;36
45789;BME280;31492;54.856;26.318;2023-03-16T11:38:32;1026.1;;;14.9;35.3
45789;BME280;31492;54.856;26.318;2023-03-16T11:43:59;1026.1;;;15;34.9
45789;BME280;31492;54.856;26.318;2023-03-16T11:48:37;1026.1;;;14.9;34.8
45789;BME280;31492;54.856;26.318;2023-03-16T11:54:16;1026.2;;;14.6;35.2
45789;BME280;31492;54.856;26.318;2023-03-16T11:58:48;1026.2;;;14.5;35.5
45789;BME280;31492;54.856;26.318;2023-03-16T12:03:55;1026.2;;;14.1;34.6
45789;BME280;31492;54.856;26.318;2023-03-16T12:08:51;1026.2;;;14;35.5
45789;BME280;31492;54.856;26.318;2023-03-16T12:13:34;1026.2;;;13.9;36
45789;BME280;31492;54.856;26.318;2023-03-16T12:19:05;1026.3;;;13.5;36
45789;BME280;31492;54.856;26.318;2023-03-16T12:23:48;1026.3;;;12.9;36.5
45789;BME280;31492;54.856;26.318;2023-03-16T12:28:30;1026.3;;;12.8;36.8
45789;BME280;31492;54.856;26.318;2023-03-16T12:34:21;1026.4;;;12.8;36.4
45789;BME280;31492;54.856;26.318;2023-03-16T12:38:33;1026.4;;;12.7;36.7
45789;BME280;31492;54.856;26.318;2023-03-16T12:43:47;1026.4;;;12.6;35.7
45789;BME280;31492;54.856;26.318;2023-03-16T12:49:04;1026.5;;;12;36.5
45789;BME280;31492;54.856;26.318;2023-03-16T12:53:40;1026.5;;;11.4;38.7
45789;BME280;31492;54.856;26.318;2023-03-16T12:58:30;1026.6;;;10.9;38.8
45789;BME280;31492;54.856;26.318;2023-03-16T13:03:30;1026.6;;;10.4;39.8
45789;BME280;31492;54.856;26.318;2023-03-16T13:08:46;1026.6;;;10.1;40
45789;BME280;31492;54.856;26.318;2023-03-16T13:13:47;1026.7;;;9.8;40.3
45789;BME280;31492;54.856;26.318;2023-03-16T13:18:56;1026.7;;;9.4;41.4
45789;BME280;31492;54.856;26.318;2023-03-16T13:23:52;1026.7;;;9.2;41.6
45789;BME280;31492;54.856;26.318;2023-03-16T13:28:31;1026.7;;;9;41.4
45789;BME280;31492;54.856;26.318;2023-03-16T13:33:44;1026.7;;;8.8;42.4
45789;BME280;31492;54.856;26.318;2023-03-16T13:38:53;1026.7;;;8.7;43.1
45789;BME280;31492;54.856;26.318;2023-03-16T13:44:00;1026.8;;;8.6;43.7
45789;BME280;31492;54.856;26.318;2023-03-16T13:48:35;1026.8;;;8.4;44.1
45789;BME280;31492;54.856;26.318;2023-03-16T13:53:44;1026.7;;;8.2;45
45789;BME280;31492;54.856;26.318;2023-03-16T13:59:06;1026.8;;;8;45
45789;BME280;31492;54.856;26.318;2023-03-16T14:03:44;1026.8;;;7.9;44.8
45789;BME280;31492;54.856;26.318;2023-03-16T14:08:36;1026.8;;;7.9;44.8
45789;BME280;31492;54.856;26.318;2023-03-16T14:13:31;1026.8;;;7.9;45.1
45789;BME280;31492;54.856;26.318;2023-03-16T14:18:45;1026.8;;;7.9;43.2
45789;BME280;31492;54.856;26.318;2023-03-16T14:23:32;1026.9;;;7.8;42.9
45789;BME280;31492;54.856;26.318;2023-03-16T14:29:01;1026.9;;;7.8;42
45789;BME280;31492;54.856;26.318;2023-03-16T14:33:44;1026.9;;;7.6;42.7
45789;BME280;31492;54.856;26.318;2023-03-16T14:38:48;1026.9;;;7.5;42.3
45789;BME280;31492;54.856;26.318;2023-03-16T14:43:49;1027;;;7.4;43.5
45789;BME280;31492;54.856;26.318;2023-03-16T14:48:30;1027.1;;;7.3;43
45789;BME280;31492;54.856;26.318;2023-03-16T14:53:30;1027.1;;;7.2;43.1
45789;BME280;31492;54.856;26.318;2023-03-16T14:59:00;1027.1;;;7;43.9
45789;BME280;31492;54.856;26.318;2023-03-16T15:04:00;1027.1;;;6.9;44.4
45789;BME280;31492;54.856;26.318;2023-03-16T15:08:36;1027.1;;;6.7;44.9
45789;BME280;31492;54.856;26.318;2023-03-16T15:13:44;1027.1;;;6.6;44.1
45789;BME280;31492;54.856;26.318;2023-03-16T15:18:40;1027.2;;;6.5;44.2
45789;BME280;31492;54.856;26.318;2023-03-16T15:23:30;1027.2;;;6.3;44
45789;BME280;31492;54.856;26.318;2023-03-16T15:28:30;1027.2;;;6.1;44.2
45789;BME280;31492;54.856;26.318;2023-03-16T15:33:50;1027.3;;;6;44.5
45789;BME280;31492;54.856;26.318;2023-03-16T15:38:41;1027.3;;;5.9;44.7
45789;BME280;31492;54.856;26.318;2023-03-16T15:43:56;1027.4;;;5.8;45
45789;BME280;31492;54.856;26.318;2023-03-16T15:48:36;1027.5;;;5.6;45.9
45789;BME280;31492;54.856;26.318;2023-03-16T15:53:49;1027.5;;;5.5;45.8
45789;BME280;31492;54.856;26.318;2023-03-16T15:58:44;1027.5;;;5.3;45.8
45789;BME280;31492;54.856;26.318;2023-03-16T16:03:30;1027.6;;;5.1;45.6
45789;BME280;31492;54.856;26.318;2023-03-16T16:08:30;1027.7;;;4.9;45.5
45789;BME280;31492;54.856;26.318;2023-03-16T16:13:30;1027.8;;;4.7;45.6
45789;BME280;31492;54.856;26.318;2023-03-16T16:18:50;1027.9;;;4.5;46
45789;BME280;31492;54.856;26.318;2023-03-16T16:23:44;1028;;;4.2;46.5
45789;BME280;31492;54.856;26.318;2023-03-16T16:28:44;1028.1;;;4;46.5
45789;BME280;31492;54.856;26.318;2023-03-16T16:33:40;1028.2;;;3.8;47.3
45789;BME280;31492;54.856;26.318;2023-03-16T16:38:58;1028.3;;;3.7;47
45789;BME280;31492;54.856;26.318;2023-03-16T16:43:45;1028.4;;;3.6;47.2
45789;BME280;31492;54.856;26.318;2023-03-16T16:48:51;1028.5;;;3.6;47.9
45789;BME280;31492;54.856;26.318;2023-03-16T16:53:44;1028.5;;;3.5;47.6
45789;BME280;31492;54.856;26.318;2023-03-16T16:59:10;1028.6;;;3.5;47.4
45789;BME280;31492;54.856;26.318;2023-03-16T17:03:56;1028.6;;;3.4;47.7
45789;BME280;31492;54.856;26.318;2023-03-16T17:08:36;1028.7;;;3.4;49.8
45789;BME280;31492;54.856;26.318;2023-03-16T17:13:57;1028.7;;;3.4;51.4
45789;BME280;31492;54.856;26.318;2023-03-16T17:18:34;1028.8;;;3.3;50.6
45789;BME280;31492;54.856;26.318;2023-03-16T17:23:58;1028.8;;;3.2;50
45789;BME280;31492;54.856;26.318;2023-03-16T17:28:47;1028.8;;;3.1;50.1
45789;BME280;31492;54.856;26.318;2023-03-16T17:33:30;1028.8;;;3.1;50.1
45789;BME280;31492;54.856;26.318;2023-03-16T17:38:30;1028.8;;;3.1;50.1
45789;BME280;31492;54.856;26.318;2023-03-16T17:43:30;1028.8;;;3.1;50.1
45789;BME280;31492;54.856;26.318;2023-03-16T17:48:48;1029;;;2.5;51.1
45789;BME280;31492;54.856;26.318;2023-03-16T17:53:58;1029;;;2.3;51
45789;BME280;31492;54.856;26.318;2023-03-16T17:58:51;1029.1;;;2.2;51.6
45789;BME280;31492;54.856;26.318;2023-03-16T18:03:56;1029.1;;;2.2;52.1
45789;BME280;31492;54.856;26.318;2023-03-16T18:09:00;1029.2;;;2.1;52.1
45789;BME280;31492;54.856;26.318;2023-03-16T18:13:31;1029.3;;;2.1;52.7
45789;BME280;31492;54.856;26.318;2023-03-16T18:18:44;1029.3;;;2;52.2
45789;BME280;31492;54.856;26.318;2023-03-16T18:24:09;1029.3;;;1.9;52
45789;BME280;31492;54.856;26.318;2023-03-16T18:28:31;1029.4;;;1.8;52.8
45789;BME280;31492;54.856;26.318;2023-03-16T18:33:59;1029.5;;;1.8;53.2
45789;BME280;31492;54.856;26.318;2023-03-16T18:38:45;1029.5;;;1.7;53.6
45789;BME280;31492;54.856;26.318;2023-03-16T18:43:49;1029.6;;;1.7;53.9
45789;BME280;31492;54.856;26.318;2023-03-16T18:48:31;1029.6;;;1.7;54.1
45789;BME280;31492;54.856;26.318;2023-03-16T18:53:58;1029.7;;;1.6;54
45789;BME280;31492;54.856;26.318;2023-03-16T18:58:49;1029.7;;;1.5;54
45789;BME280;31492;54.856;26.318;2023-03-16T19:03:44;1029.8;;;1.5;54.4
45789;BME280;31492;54.856;26.318;2023-03-16T19:08:44;1029.8;;;1.4;54.2
45789;BME280;31492;54.856;26.318;2023-03-16T19:13:42;1029.8;;;1.4;54.6
45789;BME280;31492;54.856;26.318;2023-03-16T19:18:50;1029.9;;;1.3;55
45789;BME280;31492;54.856;26.318;2023-03-16T19:23:48;1030;;;1.3;54.7
45789;BME280;31492;54.856;26.318;2023-03-16T19:28:56;1030;;;1.2;54.7
45789;BME280;31492;54.856;26.318;2023-03-16T19:33:30;1030.1;;;1.2;55
45789;BME280;31492;54.856;26.318;2023-03-16T19:38:49;1030.1;;;1.2;55.4
45789;BME280;31492;54.856;26.318;2023-03-16T19:43:36;1030.2;;;1.1;55.4
45789;BME280;31492;54.856;26.318;2023-03-16T19:48:31;1030.2;;;1;55.4
45789;BME280;31492;54.856;26.318;2023-03-16T19:53:30;1030.3;;;0.9;55.9
45789;BME280;31492;54.856;26.318;2023-03-16T19:59:00;1030.3;;;0.9;56.2
45789;BME280;31492;54.856;26.318;2023-03-16T20:03:40;1030.4;;;0.8;56.3
45789;BME280;31492;54.856;26.318;2023-03-16T20:08:30;1030.4;;;0.8;56.3
45789;BME280;31492;54.856;26.318;2023-03-16T20:13:30;1030.4;;;0.9;56.2
45789;BME280;31492;54.856;26.318;2023-03-16T20:18:42;1030.4;;;0.8;56.8
45789;BME280;31492;54.856;26.318;2023-03-16T20:23:55;1030.5;;;0.7;56.8
45789;BME280;31492;54.856;26.318;2023-03-16T20:28:32;1030.5;;;0.8;56.7
45789;BME280;31492;54.856;26.318;2023-03-16T20:33:51;1030.5;;;0.8;57
45789;BME280;31492;54.856;26.318;2023-03-16T20:38:30;1030.5;;;0.7;57.5
45789;BME280;31492;54.856;26.318;2023-03-16T20:43:31;1030.6;;;0.6;57.9
45789;BME280;31492;54.856;26.318;2023-03-16T20:48:30;1030.6;;;0.6;57.8
45789;BME280;31492;54.856;26.318;2023-03-16T20:53:48;1030.6;;;0.6;57.8
45789;BME280;31492;54.856;26.318;2023-03-16T20:58:31;1030.6;;;0.7;57.8
45789;BME280;31492;54.856;26.318;2023-03-16T21:03:30;1030.6;;;0.5;58.2
45789;BME280;31492;54.856;26.318;2023-03-16T21:08:57;1030.6;;;0.4;58.4
45789;BME280;31492;54.856;26.318;2023-03-16T21:13:56;1030.7;;;0.4;58.7
45789;BME280;31492;54.856;26.318;2023-03-16T21:18:44;1030.7;;;0.3;59.1
45789;BME280;31492;54.856;26.318;2023-03-16T21:23:30;1030.8;;;0.2;59.7
45789;BME280;31492;54.856;26.318;2023-03-16T21:28:31;1030.8;;;0.1;60.1
45789;BME280;31492;54.856;26.318;2023-03-16T21:33:31;1030.8;;;0;60.3
45789;BME280;31492;54.856;26.318;2023-03-16T21:38:45;1030.8;;;0;60.1
45789;BME280;31492;54.856;26.318;2023-03-16T21:43:44;1030.8;;;-0.1;60.1
45789;BME280;31492;54.856;26.318;2023-03-16T21:48:37;1030.8;;;-0.1;60.5
45789;BME280;31492;54.856;26.318;2023-03-16T21:53:45;1030.8;;;-0.1;60.3
45789;BME280;31492;54.856;26.318;2023-03-16T21:58:30;1030.9;;;-0.1;60.3
45789;BME280;31492;54.856;26.318;2023-03-16T22:03:42;1030.9;;;-0.1;60.6
45789;BME280;31492;54.856;26.318;2023-03-16T22:08:44;1030.9;;;0;60.4
45789;BME280;31492;54.856;26.318;2023-03-16T22:13:51;1031;;;0;60
45789;BME280;31492;54.856;26.318;2023-03-16T22:18:31;1031;;;0.1;59.9
45789;BME280;31492;54.856;26.318;2023-03-16T22:23:44;1031.1;;;0.1;60.2
45789;BME280;31492;54.856;26.318;2023-03-16T22:28:46;1031.1;;;-0.1;60.6
45789;BME280;31492;54.856;26.318;2023-03-16T22:33:31;1031.1;;;-0.3;61.2
45789;BME280;31492;54.856;26.318;2023-03-16T22:38:45;1031.2;;;-0.3;61.3
45789;BME280;31492;54.856;26.318;2023-03-16T22:43:37;1031.3;;;-0.3;61.4
45789;BME280;31492;54.856;26.318;2023-03-16T22:48:57;1031.3;;;-0.4;61.6
45789;BME280;31492;54.856;26.318;2023-03-16T22:53:33;1031.4;;;-0.4;61.3
45789;BME280;31492;54.856;26.318;2023-03-16T22:58:31;1031.4;;;-0.4;61.6
45789;BME280;31492;54.856;26.318;2023-03-16T23:03:40;1031.4;;;-0.6;61.8
45789;BME280;31492;54.856;26.318;2023-03-16T23:08:31;1031.5;;;-0.7;62.2
45789;BME280;31492;54.856;26.318;2023-03-16T23:13:50;1031.5;;;-0.7;62.6
45789;BME280;31492;54.856;26.318;2023-03-16T23:18:30;1031.5;;;-0.8;62.8
45789;BME280;31492;54.856;26.318;2023-03-16T23:23:30;1031.6;;;-0.8;63
45789;BME280;31492;54.856;26.318;2023-03-16T23:28:57;1031.6;;;-0.8;63
45789;BME280;31492;54.856;26.318;2023-03-16T23:33:30;1031.7;;;-0.8;62.8
45789;BME280;31492;54.856;26.318;2023-03-16T23:38:45;1031.7;;;-0.8;62.9
45789;BME280;31492;54.856;26.318;2023-03-16T23:44:00;1031.7;;;-0.8;62.7
45789;BME280;31492;54.856;26.318;2023-03-16T23:48:51;1031.7;;;-0.8;62.6
45789;BME280;31492;54.856;26.318;2023-03-16T23:54:09;1031.7;;;-0.9;63.1
45789;BME280;31492;54.856;26.318;2023-03-16T23:58:30;1031.8;;;-1;63.5
